createdAt,value
2018-12-14T00:01:10.182Z,26.82
2018-12-14T00:03:40.217Z,27.20
2018-12-14T00:06:10.243Z,28.20
2018-12-14T00:08:38.182Z,22.67
2018-12-14T00:11:06.147Z,28.42
2018-12-14T00:13:34.167Z,26.00
2018-12-14T00:16:02.076Z,20.35
2018-12-14T00:18:30.017Z,23.30
2018-12-14T00:20:57.964Z,24.52
2018-12-14T00:23:25.878Z,23.32
2018-12-14T00:25:54.185Z,23.20
2018-12-14T00:28:22.111Z,23.95
2018-12-14T00:30:50.068Z,24.72
2018-12-14T00:33:18.061Z,20.50
2018-12-14T00:35:46.149Z,21.12
2018-12-14T00:38:14.053Z,27.07
2018-12-14T00:40:41.989Z,21.42
2018-12-14T00:43:09.920Z,25.15
2018-12-14T00:45:37.898Z,26.40
2018-12-14T00:48:05.828Z,21.93
2018-12-14T00:50:33.793Z,23.77
2018-12-14T00:53:01.739Z,24.23
2018-12-14T00:55:29.702Z,24.25
2018-12-14T00:57:57.644Z,21.42
2018-12-14T01:00:25.622Z,21.77
2018-12-14T01:02:53.573Z,22.75
2018-12-14T01:05:21.521Z,26.95
2018-12-14T01:07:56.111Z,25.43
2018-12-14T01:10:24.057Z,27.13
2018-12-14T01:12:52.058Z,23.83
2018-12-14T01:15:20.019Z,24.75
2018-12-14T01:17:47.957Z,24.02
2018-12-14T01:20:15.888Z,24.87
2018-12-14T01:22:43.853Z,28.30
2018-12-14T01:25:11.824Z,24.60
2018-12-14T01:27:39.798Z,22.37
2018-12-14T01:30:07.918Z,25.32
2018-12-14T01:32:35.879Z,24.98
2018-12-14T01:35:03.901Z,22.35
2018-12-14T01:37:31.851Z,22.10
2018-12-14T01:39:59.783Z,24.60
2018-12-14T01:42:27.743Z,25.35
2018-12-14T01:44:55.721Z,22.67
2018-12-14T01:47:24.815Z,22.52
2018-12-14T01:49:52.725Z,22.70
2018-12-14T01:52:21.747Z,26.05
2018-12-14T01:54:49.812Z,24.87
2018-12-14T01:57:17.896Z,20.27
2018-12-14T01:59:45.924Z,28.12
2018-12-14T02:02:14.892Z,21.87
2018-12-14T02:04:42.859Z,23.55
2018-12-14T02:07:10.798Z,25.92
2018-12-14T02:09:38.745Z,24.60
2018-12-14T02:12:11.279Z,26.10
2018-12-14T02:14:37.752Z,21.25
2018-12-14T02:17:05.674Z,25.92
2018-12-14T02:19:33.623Z,25.65
2018-12-14T02:22:01.585Z,21.77
2018-12-14T02:24:29.525Z,24.43
2018-12-14T02:26:57.447Z,25.30
2018-12-14T02:29:25.409Z,24.90
2018-12-14T02:31:53.429Z,28.42
2018-12-14T02:34:21.375Z,23.07
2018-12-14T02:36:49.455Z,24.43
2018-12-14T02:39:17.400Z,25.80
2018-12-14T02:41:45.316Z,26.77
2018-12-14T02:44:13.278Z,30.70
2018-12-14T02:46:41.301Z,25.30
2018-12-14T02:49:09.244Z,24.05
2018-12-14T02:51:37.474Z,27.27
2018-12-14T02:54:05.391Z,25.97
2018-12-14T02:56:33.336Z,32.05
2018-12-14T02:59:01.258Z,28.85
2018-12-14T03:01:29.177Z,28.40
2018-12-14T03:03:57.180Z,25.23
2018-12-14T03:06:25.125Z,27.60
2018-12-14T03:08:53.046Z,29.07
2018-12-14T03:11:21.005Z,21.95
2018-12-14T03:13:48.925Z,23.70
2018-12-14T03:16:16.854Z,23.73
2018-12-14T03:18:44.809Z,26.05
2018-12-14T03:21:12.813Z,26.12
2018-12-14T03:23:40.740Z,27.40
2018-12-14T03:26:15.886Z,32.08
2018-12-14T03:28:43.925Z,27.27
2018-12-14T03:31:11.884Z,23.25
2018-12-14T03:33:39.826Z,29.18
2018-12-14T03:36:07.858Z,34.78
2018-12-14T03:38:35.797Z,27.02
2018-12-14T03:41:03.748Z,24.10
2018-12-14T03:43:31.674Z,25.45
2018-12-14T03:45:59.631Z,27.30
2018-12-14T03:48:27.548Z,24.02
2018-12-14T03:50:55.450Z,25.77
2018-12-14T03:53:23.401Z,24.27
2018-12-14T03:55:51.353Z,26.02
2018-12-14T03:58:19.282Z,29.23
2018-12-14T04:00:47.229Z,28.20
2018-12-14T04:03:15.219Z,28.12
2018-12-14T04:05:43.179Z,28.57
2018-12-14T04:08:11.169Z,27.15
2018-12-14T04:10:39.146Z,26.30
2018-12-14T04:13:07.091Z,30.70
2018-12-14T04:15:35.152Z,30.23
2018-12-14T04:18:03.140Z,27.80
2018-12-14T04:20:31.060Z,28.85
2018-12-14T04:22:59.010Z,32.88
2018-12-14T04:25:26.916Z,33.73
2018-12-14T04:27:54.835Z,34.40
2018-12-14T04:30:22.793Z,30.97
2018-12-14T04:32:50.728Z,33.55
2018-12-14T04:35:18.712Z,33.48
2018-12-14T04:37:46.893Z,36.75
2018-12-14T04:40:14.869Z,36.85
2018-12-14T04:42:48.888Z,34.70
2018-12-14T04:45:13.061Z,30.92
2018-12-14T04:47:41.024Z,38.35
2018-12-14T04:50:10.496Z,39.33
2018-12-14T04:52:38.663Z,40.92
2018-12-14T04:55:06.724Z,41.28
2018-12-14T04:57:34.673Z,46.58
2018-12-14T05:00:02.742Z,34.65
2018-12-14T05:02:30.766Z,40.67
2018-12-14T05:04:58.689Z,44.30
2018-12-14T05:07:26.629Z,46.55
2018-12-14T05:09:54.563Z,43.35
2018-12-14T05:12:22.503Z,39.60
2018-12-14T05:14:50.646Z,50.95
2018-12-14T05:17:18.619Z,43.20
2018-12-14T05:19:46.546Z,44.45
2018-12-14T05:22:14.467Z,48.10
2018-12-14T05:24:42.383Z,45.52
2018-12-14T05:27:10.350Z,44.35
2018-12-14T05:29:38.305Z,45.78
2018-12-14T05:32:06.319Z,46.13
2018-12-14T05:34:34.272Z,48.10
2018-12-14T05:37:02.196Z,46.18
2018-12-14T05:39:30.145Z,43.78
2018-12-14T05:41:58.065Z,41.08
2018-12-14T05:44:25.995Z,36.95
2018-12-14T05:46:53.943Z,41.23
2018-12-14T05:49:21.912Z,45.05
2018-12-14T05:51:49.827Z,49.63
2018-12-14T05:54:17.806Z,41.60
2018-12-14T05:56:45.885Z,43.95
2018-12-14T05:59:13.878Z,46.60
2018-12-14T06:01:41.810Z,46.35
2018-12-14T06:04:09.934Z,47.62
2018-12-14T06:06:38.039Z,46.33
2018-12-14T06:09:06.227Z,47.25
2018-12-14T06:11:35.381Z,48.38
2018-12-14T06:14:03.310Z,45.12
2018-12-14T06:16:31.258Z,45.52
2018-12-14T06:18:59.199Z,47.83
2018-12-14T06:21:27.137Z,43.65
2018-12-14T06:23:55.070Z,58.00
2018-12-14T06:26:23.015Z,44.70
2018-12-14T06:28:51.000Z,50.48
2018-12-14T06:31:18.965Z,43.02
2018-12-14T06:33:46.908Z,52.30
2018-12-14T06:36:14.879Z,44.83
2018-12-14T06:38:42.905Z,51.23
2018-12-14T06:41:10.810Z,46.45
2018-12-14T06:43:38.760Z,43.55
2018-12-14T06:46:06.705Z,44.70
2018-12-14T06:48:34.780Z,36.33
2018-12-14T06:51:03.113Z,40.75
2018-12-14T06:53:32.105Z,42.40
2018-12-14T06:56:00.018Z,46.60
2018-12-14T06:58:27.965Z,47.98
2018-12-14T07:00:55.960Z,38.08
2018-12-14T07:03:23.964Z,46.25
2018-12-14T07:05:51.913Z,37.55
2018-12-14T07:08:19.871Z,39.20
2018-12-14T07:10:47.855Z,36.48
2018-12-14T07:13:21.733Z,42.55
2018-12-14T07:15:45.834Z,38.73
2018-12-14T07:18:13.782Z,33.92
2018-12-14T07:20:41.983Z,36.85
2018-12-14T07:23:09.912Z,39.23
2018-12-14T07:25:37.833Z,44.93
2018-12-14T07:28:05.774Z,36.35
2018-12-14T07:30:33.730Z,37.00
2018-12-14T07:33:02.144Z,41.05
2018-12-14T07:35:30.153Z,40.83
2018-12-14T07:37:58.112Z,36.77
2018-12-14T07:40:26.101Z,36.42
2018-12-14T07:42:54.083Z,36.42
2018-12-14T07:45:22.086Z,35.35
2018-12-14T07:47:50.041Z,34.48
2018-12-14T07:50:18.014Z,35.08
2018-12-14T07:52:45.988Z,35.58
2018-12-14T07:55:14.868Z,27.25
2018-12-14T07:57:42.820Z,37.05
2018-12-14T08:00:10.762Z,33.08
2018-12-14T08:02:39.874Z,32.65
2018-12-14T08:05:07.839Z,31.23
2018-12-14T08:07:35.837Z,34.03
2018-12-14T08:10:04.048Z,31.48
2018-12-14T08:12:31.999Z,30.80
2018-12-14T08:15:00.227Z,30.17
2018-12-14T08:17:28.184Z,36.20
2018-12-14T08:19:56.155Z,33.67
2018-12-14T08:22:24.084Z,29.80
2018-12-14T08:24:52.035Z,33.08
2018-12-14T08:27:19.995Z,34.10
2018-12-14T08:29:47.969Z,31.68
2018-12-14T08:32:15.906Z,30.37
2018-12-14T08:34:43.816Z,27.15
2018-12-14T08:37:11.797Z,32.20
2018-12-14T08:39:39.735Z,29.90
2018-12-14T08:42:07.677Z,31.52
2018-12-14T08:44:35.611Z,29.40
2018-12-14T08:47:03.669Z,29.00
2018-12-14T08:49:31.664Z,24.95
2018-12-14T08:51:59.590Z,29.35
2018-12-14T08:54:27.576Z,35.08
2018-12-14T08:56:55.516Z,30.95
2018-12-14T08:59:23.460Z,31.70
2018-12-14T09:01:51.404Z,32.85
2018-12-14T09:04:19.343Z,31.42
2018-12-14T09:06:47.276Z,30.25
2018-12-14T09:09:15.187Z,29.30
2018-12-14T09:11:43.133Z,32.40
2018-12-14T09:14:11.082Z,28.60
2018-12-14T09:16:39.017Z,25.90
2018-12-14T09:19:07.213Z,28.25
2018-12-14T09:21:35.166Z,28.57
2018-12-14T09:24:03.133Z,30.12
2018-12-14T09:26:31.091Z,29.20
2018-12-14T09:28:59.497Z,31.80
2018-12-14T09:31:28.025Z,26.07
2018-12-14T09:33:55.971Z,28.80
2018-12-14T09:36:23.917Z,25.80
2018-12-14T09:38:51.943Z,24.30
2018-12-14T09:41:19.911Z,23.20
2018-12-14T09:43:54.156Z,25.60
2018-12-14T09:46:17.895Z,28.67
2018-12-14T09:48:45.855Z,30.37
2018-12-14T09:51:13.858Z,23.40
2018-12-14T09:53:41.842Z,31.27
2018-12-14T09:56:09.762Z,26.57
2018-12-14T09:58:37.681Z,28.50
2018-12-14T10:01:05.787Z,30.40
2018-12-14T10:03:33.981Z,25.52
2018-12-14T10:06:01.925Z,25.00
2018-12-14T10:08:29.868Z,30.62
2018-12-14T10:10:58.093Z,30.68
2018-12-14T10:13:26.114Z,30.62
2018-12-14T10:15:54.425Z,28.20
2018-12-14T10:18:22.390Z,26.68
2018-12-14T10:20:50.371Z,30.72
2018-12-14T10:23:18.317Z,33.80
2018-12-14T10:25:46.381Z,32.42
2018-12-14T10:28:14.492Z,28.62
2018-12-14T10:30:42.403Z,31.27
2018-12-14T10:33:10.412Z,34.33
2018-12-14T10:35:38.350Z,31.20
2018-12-14T10:38:06.306Z,32.35
2018-12-14T10:40:34.542Z,28.60
2018-12-14T10:43:02.482Z,30.10
2018-12-14T10:45:30.598Z,37.58
2018-12-14T10:47:58.562Z,32.13
2018-12-14T10:50:26.549Z,31.90
2018-12-14T10:52:54.499Z,31.42
2018-12-14T10:55:22.478Z,29.20
2018-12-14T10:57:50.687Z,33.55
2018-12-14T11:00:25.346Z,28.40
2018-12-14T11:02:53.293Z,24.60
2018-12-14T11:05:21.298Z,32.17
2018-12-14T11:07:49.261Z,29.25
2018-12-14T11:10:17.239Z,30.30
2018-12-14T11:12:45.197Z,27.62
2018-12-14T11:15:13.214Z,29.87
2018-12-14T11:17:41.161Z,28.80
2018-12-14T11:20:10.241Z,29.87
2018-12-14T11:22:38.233Z,37.03
2018-12-14T11:25:07.003Z,28.10
2018-12-14T11:27:34.994Z,28.52
2018-12-14T11:30:03.197Z,29.72
2018-12-14T11:32:31.112Z,31.90
2018-12-14T11:34:59.104Z,30.80
2018-12-14T11:37:27.097Z,30.48
2018-12-14T11:39:55.030Z,30.30
2018-12-14T11:42:23.010Z,28.87
2018-12-14T11:44:51.001Z,29.63
2018-12-14T11:47:18.976Z,34.35
2018-12-14T11:49:48.511Z,32.83
2018-12-14T11:52:16.637Z,30.57
2018-12-14T11:54:44.605Z,33.13
2018-12-14T11:57:12.574Z,37.48
2018-12-14T11:59:40.641Z,34.40
2018-12-14T12:02:08.614Z,37.03
2018-12-14T12:04:36.636Z,33.83
2018-12-14T12:07:04.642Z,37.88
2018-12-14T12:09:33.434Z,35.75
2018-12-14T12:12:01.613Z,32.20
2018-12-14T12:14:29.703Z,35.28
2018-12-14T12:16:57.738Z,34.25
2018-12-14T12:19:25.694Z,36.40
2018-12-14T12:21:53.840Z,30.37
2018-12-14T12:24:21.802Z,31.35
2018-12-14T12:26:49.826Z,32.05
2018-12-14T12:29:17.770Z,30.70
2018-12-14T12:31:45.735Z,29.05
2018-12-14T12:34:13.669Z,30.82
2018-12-14T12:36:41.649Z,28.70
2018-12-14T12:39:10.392Z,29.50
2018-12-14T12:41:40.557Z,25.37
2018-12-14T12:44:08.514Z,32.98
2018-12-14T12:46:36.472Z,30.60
2018-12-14T12:49:04.433Z,28.38
2018-12-14T12:51:32.399Z,35.38
2018-12-14T12:54:00.322Z,30.27
2018-12-14T12:56:28.389Z,27.82
2018-12-14T12:58:56.399Z,33.10
2018-12-14T13:01:25.526Z,31.35
2018-12-14T13:03:53.509Z,28.15
2018-12-14T13:06:21.422Z,33.75
2018-12-14T13:08:49.384Z,27.35
2018-12-14T13:11:17.338Z,25.20
2018-12-14T13:13:45.299Z,24.55
2018-12-14T13:16:13.218Z,25.15
2018-12-14T13:18:41.217Z,27.30
2018-12-14T13:21:09.163Z,24.27
2018-12-14T13:23:37.137Z,26.20
2018-12-14T13:26:05.078Z,28.12
2018-12-14T13:28:33.316Z,27.75
2018-12-14T13:31:01.273Z,22.00
2018-12-14T13:33:29.275Z,29.35
2018-12-14T13:35:57.256Z,26.62
2018-12-14T13:38:25.229Z,24.47
2018-12-14T13:40:53.191Z,29.10
2018-12-14T13:43:21.111Z,20.77
2018-12-14T13:45:49.100Z,22.98
2018-12-14T13:48:17.054Z,27.45
2018-12-14T13:50:45.021Z,28.65
2018-12-14T13:53:13.023Z,28.75
2018-12-14T13:55:40.966Z,30.27
2018-12-14T13:58:08.892Z,22.98
2018-12-14T14:00:36.899Z,27.62
2018-12-14T14:03:05.076Z,29.00
2018-12-14T14:05:33.042Z,27.00
2018-12-14T14:08:01.080Z,25.55
2018-12-14T14:10:29.020Z,25.35
2018-12-14T14:12:57.026Z,28.07
2018-12-14T14:15:25.076Z,27.13
2018-12-14T14:17:53.016Z,28.47
2018-12-14T14:20:21.034Z,33.10
2018-12-14T14:22:49.084Z,29.32
2018-12-14T14:25:17.690Z,31.57
2018-12-14T14:27:45.864Z,31.57
2018-12-14T14:30:13.776Z,30.45
2018-12-14T14:32:41.673Z,36.50
2018-12-14T14:35:10.668Z,30.02
2018-12-14T14:37:38.598Z,31.62
2018-12-14T14:40:06.578Z,34.30
2018-12-14T14:42:34.488Z,31.27
2018-12-14T14:45:02.507Z,37.45
2018-12-14T14:47:30.523Z,30.72
2018-12-14T14:49:58.423Z,36.03
2018-12-14T14:52:26.397Z,27.98
2018-12-14T14:54:54.407Z,26.73
2018-12-14T14:57:23.365Z,28.75
2018-12-14T14:59:51.543Z,35.78
2018-12-14T15:02:19.443Z,33.42
2018-12-14T15:04:47.323Z,29.42
2018-12-14T15:07:15.247Z,32.50
2018-12-14T15:09:43.102Z,33.60
2018-12-14T15:12:11.064Z,30.97
2018-12-14T15:14:38.967Z,33.15
2018-12-14T15:17:06.972Z,32.88
2018-12-14T15:19:34.850Z,38.70
2018-12-14T15:22:04.719Z,31.45
2018-12-14T15:24:32.654Z,31.65
2018-12-14T15:27:00.572Z,35.48
2018-12-14T15:29:28.449Z,32.42
2018-12-14T15:31:56.584Z,33.05
2018-12-14T15:34:24.460Z,36.23
2018-12-14T15:36:52.942Z,37.20
2018-12-14T15:39:20.841Z,31.20
2018-12-14T15:41:48.714Z,45.20
2018-12-14T15:44:16.702Z,36.80
2018-12-14T15:46:44.538Z,37.70
2018-12-14T15:49:12.435Z,33.75
2018-12-14T15:51:40.308Z,34.65
2018-12-14T15:54:15.595Z,33.90
2018-12-14T15:56:43.508Z,34.80
2018-12-14T15:59:11.404Z,27.77
2018-12-14T16:01:39.379Z,30.15
2018-12-14T16:04:07.293Z,26.55
2018-12-14T16:06:35.180Z,30.20
2018-12-14T16:09:04.532Z,23.98
2018-12-14T16:11:32.433Z,27.65
2018-12-14T16:14:00.463Z,27.02
2018-12-14T16:16:28.328Z,33.25
2018-12-14T16:18:56.214Z,27.80
2018-12-14T16:21:24.117Z,31.45
2018-12-14T16:23:52.099Z,27.87
2018-12-14T16:26:20.004Z,33.98
2018-12-14T16:28:47.921Z,27.80
2018-12-14T16:31:15.910Z,31.82
2018-12-14T16:33:43.800Z,31.62
2018-12-14T16:36:11.705Z,34.33
2018-12-14T16:38:39.630Z,29.20
2018-12-14T16:41:07.526Z,35.13
2018-12-14T16:43:36.033Z,31.65
2018-12-14T16:46:03.915Z,26.93
2018-12-14T16:48:31.801Z,29.12
2018-12-14T16:50:59.700Z,31.70
2018-12-14T16:53:27.612Z,29.32
2018-12-14T16:55:55.524Z,31.20
2018-12-14T16:58:23.465Z,30.62
2018-12-14T17:00:51.490Z,34.30
2018-12-14T17:03:19.411Z,36.45
2018-12-14T17:05:47.361Z,31.25
2018-12-14T17:08:15.251Z,28.27
2018-12-14T17:10:43.139Z,34.15
2018-12-14T17:13:11.035Z,29.40
2018-12-14T17:15:38.954Z,33.53
2018-12-14T17:18:06.815Z,35.85
2018-12-14T17:20:34.686Z,33.33
2018-12-14T17:23:02.606Z,32.48
2018-12-14T17:25:30.515Z,31.20
2018-12-14T17:27:58.422Z,29.80
2018-12-14T17:30:27.511Z,33.80
2018-12-14T17:32:55.574Z,25.17
2018-12-14T17:35:23.447Z,28.45
2018-12-14T17:37:51.342Z,24.98
2018-12-14T17:40:19.217Z,27.42
2018-12-14T17:42:49.168Z,28.50
2018-12-14T17:45:17.095Z,22.35
2018-12-14T17:47:44.992Z,28.30
2018-12-14T17:50:12.894Z,26.50
2018-12-14T17:52:40.736Z,24.05
2018-12-14T17:55:08.664Z,27.65
2018-12-14T17:57:36.516Z,26.50
2018-12-14T18:00:04.877Z,26.02
2018-12-14T18:02:32.722Z,31.70
2018-12-14T18:05:00.686Z,24.02
2018-12-14T18:07:28.548Z,31.05
2018-12-14T18:09:56.427Z,25.62
2018-12-14T18:12:24.284Z,27.40
2018-12-14T18:14:52.174Z,25.20
2018-12-14T18:17:20.131Z,26.12
2018-12-14T18:19:48.061Z,25.80
2018-12-14T18:22:16.638Z,26.07
2018-12-14T18:24:44.797Z,30.77
2018-12-14T18:27:12.752Z,24.52
2018-12-14T18:29:40.618Z,24.75
2018-12-14T18:32:08.533Z,23.52
2018-12-14T18:34:36.447Z,28.95
2018-12-14T18:37:04.349Z,28.67
2018-12-14T18:39:32.250Z,35.45
2018-12-14T18:42:00.134Z,27.60
2018-12-14T18:44:27.986Z,27.20
2018-12-14T18:46:55.859Z,26.50
2018-12-14T18:49:23.725Z,28.47
2018-12-14T18:51:51.619Z,32.67
2018-12-14T18:54:19.495Z,30.30
2018-12-14T18:56:47.411Z,27.32
2018-12-14T18:59:15.420Z,30.23
2018-12-14T19:01:43.296Z,22.42
2018-12-14T19:04:11.166Z,23.57
2018-12-14T19:06:39.068Z,25.43
2018-12-14T19:09:06.980Z,30.85
2018-12-14T19:11:36.943Z,23.15
2018-12-14T19:14:04.823Z,25.50
2018-12-14T19:16:32.745Z,22.07
2018-12-14T19:19:00.635Z,25.08
2018-12-14T19:21:28.610Z,26.37
2018-12-14T19:23:56.578Z,24.35
2018-12-14T19:26:24.475Z,23.83
2018-12-14T19:29:02.060Z,27.77
2018-12-14T19:31:30.132Z,31.25
2018-12-14T19:33:58.014Z,30.20
2018-12-14T19:36:25.921Z,24.67
2018-12-14T19:38:53.812Z,25.97
2018-12-14T19:41:21.716Z,25.77
2018-12-14T19:43:49.638Z,27.75
2018-12-14T19:46:17.538Z,27.98
2018-12-14T19:48:45.559Z,23.18
2018-12-14T19:51:13.418Z,25.77
2018-12-14T19:53:41.354Z,23.20
2018-12-14T19:56:09.315Z,28.73
2018-12-14T19:58:37.176Z,21.65
2018-12-14T20:01:05.172Z,30.45
2018-12-14T20:03:34.139Z,23.52
2018-12-14T20:06:02.017Z,25.02
2018-12-14T20:08:30.180Z,27.17
2018-12-14T20:10:58.237Z,25.20
2018-12-14T20:13:26.151Z,23.25
2018-12-14T20:15:57.507Z,20.77
2018-12-14T20:18:23.998Z,26.73
2018-12-14T20:20:51.900Z,24.20
2018-12-14T20:23:19.758Z,28.07
2018-12-14T20:25:47.675Z,27.60
2018-12-14T20:28:15.537Z,26.80
2018-12-14T20:30:43.466Z,25.88
2018-12-14T20:33:11.343Z,28.85
2018-12-14T20:35:39.255Z,26.82
2018-12-14T20:38:07.413Z,23.92
2018-12-14T20:40:35.322Z,29.10
2018-12-14T20:43:03.207Z,25.77
2018-12-14T20:45:31.126Z,24.55
2018-12-14T20:47:59.040Z,24.98
2018-12-14T20:50:26.928Z,26.02
2018-12-14T20:52:54.834Z,22.58
2018-12-14T20:55:22.754Z,28.47
2018-12-14T20:57:50.651Z,26.62
2018-12-14T21:00:18.538Z,28.38
2018-12-14T21:02:47.609Z,26.95
2018-12-14T21:05:15.531Z,26.17
2018-12-14T21:07:43.438Z,27.37
2018-12-14T21:10:11.342Z,25.80
2018-12-14T21:12:39.250Z,28.27
2018-12-14T21:15:07.771Z,26.42
2018-12-14T21:17:35.688Z,21.33
2018-12-14T21:20:04.047Z,28.87
2018-12-14T21:22:31.965Z,26.45
2018-12-14T21:24:59.810Z,24.77
2018-12-14T21:27:27.697Z,22.25
2018-12-14T21:29:55.640Z,32.63
2018-12-14T21:32:31.484Z,29.63
2018-12-14T21:34:59.328Z,28.02
2018-12-14T21:37:27.271Z,28.60
2018-12-14T21:39:55.150Z,29.80
2018-12-14T21:42:23.055Z,30.70
2018-12-14T21:44:50.986Z,30.90
2018-12-14T21:47:18.863Z,24.92
2018-12-14T21:49:46.789Z,29.65
2018-12-14T21:52:14.622Z,29.12
2018-12-14T21:54:42.512Z,32.80
2018-12-14T21:57:10.455Z,32.10
2018-12-14T21:59:38.341Z,27.17
2018-12-14T22:02:06.346Z,30.35
2018-12-14T22:04:34.279Z,26.55
2018-12-14T22:07:02.123Z,31.45
2018-12-14T22:09:31.148Z,28.55
2018-12-14T22:11:59.059Z,31.35
2018-12-14T22:14:26.930Z,26.95
2018-12-14T22:16:54.799Z,29.60
2018-12-14T22:19:22.667Z,29.50
2018-12-14T22:21:50.534Z,31.55
2018-12-14T22:24:18.441Z,24.95
2018-12-14T22:26:46.344Z,31.40
2018-12-14T22:29:14.270Z,29.30
2018-12-14T22:31:42.202Z,30.25
2018-12-14T22:34:10.213Z,30.68
2018-12-14T22:36:38.179Z,31.33
2018-12-14T22:39:06.516Z,36.55
2018-12-14T22:41:35.668Z,32.88
2018-12-14T22:44:03.659Z,30.17
2018-12-14T22:46:31.706Z,33.42
2018-12-14T22:48:59.682Z,29.00
2018-12-14T22:51:27.637Z,28.85
2018-12-14T22:53:55.548Z,32.65
2018-12-14T22:56:23.457Z,34.03
2018-12-14T22:58:51.376Z,30.25
2018-12-14T23:01:19.371Z,29.07
2018-12-14T23:03:47.348Z,31.05
2018-12-14T23:06:15.369Z,29.75
2018-12-14T23:08:44.773Z,30.57
2018-12-14T23:11:12.732Z,28.87
2018-12-14T23:13:40.711Z,30.60
2018-12-14T23:16:08.782Z,25.43
2018-12-14T23:18:36.730Z,28.45
2018-12-14T23:21:04.635Z,30.85
2018-12-14T23:23:32.647Z,29.70
2018-12-14T23:26:00.650Z,31.00
2018-12-14T23:28:28.602Z,35.68
2018-12-14T23:30:57.622Z,26.93
2018-12-14T23:33:25.634Z,33.35
2018-12-14T23:35:53.653Z,32.25
2018-12-14T23:38:21.614Z,34.70
2018-12-14T23:40:49.649Z,31.87
2018-12-14T23:43:17.709Z,31.20
2018-12-14T23:45:45.733Z,30.20
2018-12-14T23:48:13.738Z,29.63
2018-12-14T23:50:41.690Z,36.85
2018-12-14T23:53:09.634Z,37.67
2018-12-14T23:55:37.555Z,33.33
2018-12-14T23:58:05.507Z,33.48
